createdAt,value
2019-04-16T00:01:33.596Z,4.63
2019-04-16T00:04:09.118Z,4.20
2019-04-16T00:07:01.672Z,4.87
2019-04-16T00:09:39.357Z,4.10
2019-04-16T00:12:23.132Z,4.60
2019-04-16T00:14:52.807Z,4.17
2019-04-16T00:17:21.899Z,4.27
2019-04-16T00:19:50.963Z,4.70
2019-04-16T00:22:32.207Z,4.03
2019-04-16T00:25:01.604Z,4.30
2019-04-16T00:27:32.065Z,4.30
2019-04-16T00:30:03.936Z,4.37
2019-04-16T00:32:33.571Z,5.10
2019-04-16T00:35:02.635Z,4.30
2019-04-16T00:37:31.724Z,4.43
2019-04-16T00:40:00.806Z,4.53
2019-04-16T00:42:30.078Z,4.60
2019-04-16T00:44:59.145Z,4.20
2019-04-16T00:47:28.309Z,4.30
2019-04-16T00:49:58.854Z,4.43
2019-04-16T00:52:28.162Z,4.07
2019-04-16T00:54:57.244Z,4.43
2019-04-16T00:57:26.345Z,4.27
2019-04-16T00:59:56.765Z,4.57
2019-04-16T01:02:26.549Z,4.70
2019-04-16T01:04:55.648Z,4.07
2019-04-16T01:07:24.719Z,4.70
2019-04-16T01:09:53.796Z,5.00
2019-04-16T01:12:22.870Z,4.37
2019-04-16T01:14:51.948Z,4.53
2019-04-16T01:17:21.031Z,4.47
2019-04-16T01:19:50.115Z,4.07
2019-04-16T01:22:19.195Z,4.40
2019-04-16T01:24:51.725Z,4.40
2019-04-16T01:27:20.707Z,4.40
2019-04-16T01:29:49.799Z,4.50
2019-04-16T01:32:35.755Z,3.97
2019-04-16T01:35:19.108Z,4.60
2019-04-16T01:38:06.688Z,4.60
2019-04-16T01:40:41.916Z,4.20
2019-04-16T01:43:10.995Z,4.57
2019-04-16T01:45:40.155Z,5.00
2019-04-16T01:48:09.206Z,4.60
2019-04-16T01:50:38.302Z,4.53
2019-04-16T01:53:07.398Z,5.03
2019-04-16T01:55:36.523Z,4.43
2019-04-16T01:58:05.943Z,4.53
2019-04-16T02:00:36.460Z,4.13
2019-04-16T02:03:06.051Z,4.67
2019-04-16T02:05:35.479Z,5.20
2019-04-16T02:08:04.542Z,4.73
2019-04-16T02:10:35.404Z,4.97
2019-04-16T02:13:05.315Z,5.20
2019-04-16T02:15:34.439Z,4.27
2019-04-16T02:18:03.588Z,4.90
2019-04-16T02:20:32.687Z,4.17
2019-04-16T02:23:01.774Z,4.63
2019-04-16T02:25:30.893Z,4.77
2019-04-16T02:28:00.157Z,5.30
2019-04-16T02:30:29.400Z,5.00
2019-04-16T02:32:58.524Z,4.77
2019-04-16T02:35:27.635Z,4.30
2019-04-16T02:37:56.757Z,3.97
2019-04-16T02:40:25.849Z,4.20
2019-04-16T02:42:54.975Z,4.57
2019-04-16T02:45:24.582Z,4.90
2019-04-16T02:47:53.893Z,4.40
2019-04-16T02:50:52.313Z,4.80
2019-04-16T02:53:39.480Z,4.50
2019-04-16T02:56:25.025Z,4.23
2019-04-16T02:58:58.848Z,4.33
2019-04-16T03:01:56.406Z,4.27
2019-04-16T03:04:29.159Z,4.37
2019-04-16T03:07:02.753Z,4.77
2019-04-16T03:09:29.288Z,4.80
2019-04-16T03:11:58.658Z,5.17
2019-04-16T03:14:30.136Z,5.13
2019-04-16T03:17:10.663Z,4.67
2019-04-16T03:19:41.764Z,4.53
2019-04-16T03:22:10.991Z,5.00
2019-04-16T03:24:40.982Z,4.70
2019-04-16T03:27:10.324Z,4.57
2019-04-16T03:29:39.416Z,4.60
2019-04-16T03:32:13.124Z,4.90
2019-04-16T03:34:39.406Z,4.97
2019-04-16T03:37:08.565Z,4.97
2019-04-16T03:39:37.671Z,5.13
2019-04-16T03:42:06.756Z,5.00
2019-04-16T03:44:37.294Z,4.97
2019-04-16T03:47:07.704Z,4.53
2019-04-16T03:49:36.860Z,5.37
2019-04-16T03:52:08.404Z,4.70
2019-04-16T03:54:36.736Z,4.60
2019-04-16T03:57:05.832Z,4.50
2019-04-16T03:59:34.929Z,4.70
2019-04-16T04:02:04.077Z,5.03
2019-04-16T04:04:33.524Z,4.40
2019-04-16T04:07:02.587Z,5.60
2019-04-16T04:09:31.777Z,4.93
2019-04-16T04:12:01.833Z,4.90
2019-04-16T04:14:30.933Z,5.03
2019-04-16T04:17:05.364Z,4.90
2019-04-16T04:19:30.972Z,5.50
2019-04-16T04:22:00.056Z,4.93
2019-04-16T04:24:31.423Z,5.23
2019-04-16T04:26:59.946Z,5.20
2019-04-16T04:29:29.590Z,5.10
2019-04-16T04:32:03.030Z,5.50
2019-04-16T04:34:29.552Z,6.23
2019-04-16T04:37:10.957Z,5.27
2019-04-16T04:39:43.929Z,5.43
2019-04-16T04:42:10.912Z,5.70
2019-04-16T04:44:40.168Z,5.60
2019-04-16T04:47:09.240Z,5.10
2019-04-16T04:49:38.364Z,5.20
2019-04-16T04:52:07.729Z,5.40
2019-04-16T04:54:36.824Z,5.57
2019-04-16T04:57:05.923Z,6.00
2019-04-16T04:59:36.738Z,5.97
2019-04-16T05:02:05.827Z,5.47
2019-04-16T05:05:06.093Z,5.03
2019-04-16T05:07:35.207Z,5.70
2019-04-16T05:10:04.607Z,5.90
2019-04-16T05:12:35.239Z,5.83
2019-04-16T05:15:04.757Z,5.57
2019-04-16T05:17:35.433Z,5.87
2019-04-16T05:20:05.007Z,5.80
2019-04-16T05:22:34.077Z,6.23
2019-04-16T05:25:03.411Z,4.80
2019-04-16T05:27:32.573Z,5.20
2019-04-16T05:30:01.744Z,5.13
2019-04-16T05:32:34.080Z,5.70
2019-04-16T05:35:02.740Z,5.40
2019-04-16T05:37:31.854Z,5.60
2019-04-16T05:40:00.932Z,5.17
2019-04-16T05:42:30.639Z,6.07
2019-04-16T05:45:02.391Z,5.57
2019-04-16T05:47:30.605Z,5.07
2019-04-16T05:49:59.718Z,5.37
2019-04-16T05:52:28.831Z,5.70
2019-04-16T05:55:03.674Z,6.03
2019-04-16T05:57:35.000Z,5.57
2019-04-16T06:00:10.093Z,5.03
2019-04-16T06:02:40.001Z,5.00
2019-04-16T06:05:10.332Z,5.23
2019-04-16T06:07:39.433Z,5.13
2019-04-16T06:10:09.196Z,5.03
2019-04-16T06:13:03.687Z,5.30
2019-04-16T06:15:45.184Z,5.40
2019-04-16T06:18:27.548Z,5.10
2019-04-16T06:21:26.835Z,5.70
2019-04-16T06:24:04.103Z,5.60
2019-04-16T06:26:51.582Z,4.37
2019-04-16T06:29:29.424Z,5.30
2019-04-16T06:32:28.175Z,4.90
2019-04-16T06:35:08.225Z,5.50
2019-04-16T06:37:47.521Z,5.00
2019-04-16T06:40:35.816Z,5.30
2019-04-16T06:43:14.418Z,5.40
2019-04-16T06:46:08.531Z,5.17
2019-04-16T06:48:45.913Z,5.07
2019-04-16T06:51:31.821Z,5.53
2019-04-16T06:54:25.122Z,4.70
2019-04-16T06:57:12.156Z,5.13
2019-04-16T06:59:50.708Z,5.73
2019-04-16T07:02:43.234Z,5.50
2019-04-16T07:05:32.119Z,5.50
2019-04-16T07:08:17.877Z,5.20
2019-04-16T07:10:53.529Z,5.43
2019-04-16T07:13:22.617Z,5.10
2019-04-16T07:15:53.311Z,5.80
2019-04-16T07:18:22.615Z,5.03
2019-04-16T07:20:51.766Z,5.30
2019-04-16T07:23:24.267Z,5.67
2019-04-16T07:25:51.939Z,5.13
2019-04-16T07:28:35.153Z,5.10
2019-04-16T07:31:32.729Z,6.00
2019-04-16T07:34:06.767Z,6.00
2019-04-16T07:36:56.589Z,5.53
2019-04-16T07:39:46.371Z,5.47
2019-04-16T07:42:51.023Z,5.93
2019-04-16T07:45:15.836Z,5.30
2019-04-16T07:48:13.455Z,5.70
2019-04-16T07:51:01.815Z,5.73
2019-04-16T07:53:49.601Z,5.40
2019-04-16T07:56:21.765Z,6.10
2019-04-16T07:58:50.978Z,5.43
2019-04-16T08:01:20.164Z,5.87
2019-04-16T08:03:49.270Z,5.90
2019-04-16T08:06:18.365Z,5.60
2019-04-16T08:08:47.468Z,5.90
2019-04-16T08:11:16.568Z,5.63
2019-04-16T08:13:46.052Z,5.57
2019-04-16T08:16:15.164Z,5.70
2019-04-16T08:18:50.889Z,5.60
2019-04-16T08:21:22.611Z,5.80
2019-04-16T08:24:00.393Z,6.40
2019-04-16T08:26:29.551Z,5.97
2019-04-16T08:28:58.648Z,5.53
2019-04-16T08:31:28.712Z,6.13
2019-04-16T08:33:58.103Z,5.57
2019-04-16T08:36:27.285Z,6.07
2019-04-16T08:38:56.407Z,6.37
2019-04-16T08:41:25.501Z,6.27
2019-04-16T08:43:54.668Z,5.90
2019-04-16T08:46:23.773Z,6.23
2019-04-16T08:48:54.572Z,5.80
2019-04-16T08:51:30.802Z,6.50
2019-04-16T08:53:54.577Z,5.90
2019-04-16T08:56:23.747Z,5.97
2019-04-16T08:58:56.347Z,6.73
2019-04-16T09:01:29.119Z,6.53
2019-04-16T09:04:02.666Z,6.80
2019-04-16T09:06:31.680Z,6.77
2019-04-16T09:09:13.413Z,6.83
2019-04-16T09:11:42.604Z,6.27
2019-04-16T09:14:11.697Z,6.40
2019-04-16T09:16:50.104Z,6.03
2019-04-16T09:19:19.212Z,6.37
2019-04-16T09:21:48.314Z,6.20
2019-04-16T09:24:22.441Z,6.90
2019-04-16T09:27:01.457Z,6.77
2019-04-16T09:29:52.788Z,6.43
2019-04-16T09:32:43.961Z,6.87
2019-04-16T09:35:22.053Z,7.57
2019-04-16T09:38:09.403Z,7.30
2019-04-16T09:40:57.672Z,7.03
2019-04-16T09:43:27.389Z,7.43
2019-04-16T09:46:09.362Z,7.97
2019-04-16T09:48:28.017Z,7.20
2019-04-16T09:50:57.164Z,7.07
2019-04-16T09:53:33.666Z,7.43
2019-04-16T09:55:59.083Z,6.73
2019-04-16T09:58:28.249Z,7.00
2019-04-16T10:01:15.288Z,7.27
2019-04-16T10:03:45.160Z,6.80
2019-04-16T10:06:14.341Z,7.33
2019-04-16T10:08:45.121Z,6.93
2019-04-16T10:11:18.428Z,6.87
2019-04-16T10:13:46.035Z,7.33
2019-04-16T10:16:15.331Z,6.90
2019-04-16T10:18:44.486Z,7.27
2019-04-16T10:21:18.778Z,7.03
2019-04-16T10:24:03.833Z,7.63
2019-04-16T10:26:32.968Z,6.70
2019-04-16T10:29:05.964Z,6.83
2019-04-16T10:31:35.241Z,7.90
2019-04-16T10:34:04.355Z,8.00
2019-04-16T10:36:36.818Z,7.70
2019-04-16T10:39:27.004Z,7.00
2019-04-16T10:42:12.791Z,7.67
2019-04-16T10:45:00.046Z,7.77
2019-04-16T10:47:47.175Z,7.60
2019-04-16T10:50:33.815Z,6.10
2019-04-16T10:53:14.156Z,7.57
2019-04-16T10:56:01.167Z,6.57
2019-04-16T10:58:49.322Z,7.17
2019-04-16T11:01:43.828Z,7.17
2019-04-16T11:04:17.848Z,7.03
2019-04-16T11:06:48.643Z,7.10
2019-04-16T11:09:17.836Z,6.77
2019-04-16T11:11:46.940Z,6.63
2019-04-16T11:14:16.033Z,7.23
2019-04-16T11:16:47.053Z,7.70
2019-04-16T11:19:16.369Z,7.77
2019-04-16T11:21:45.630Z,6.90
2019-04-16T11:24:15.860Z,7.50
2019-04-16T11:26:45.444Z,7.70
2019-04-16T11:29:14.793Z,7.43
2019-04-16T11:31:45.009Z,7.50
2019-04-16T11:34:14.585Z,7.10
2019-04-16T11:36:43.972Z,7.83
2019-04-16T11:39:13.085Z,7.83
2019-04-16T11:41:42.277Z,6.80
2019-04-16T11:44:15.532Z,6.87
2019-04-16T11:46:42.377Z,7.73
2019-04-16T11:49:11.527Z,7.60
2019-04-16T11:51:40.666Z,8.10
2019-04-16T11:54:11.802Z,7.00
2019-04-16T11:56:42.596Z,7.83
2019-04-16T11:59:11.779Z,7.60
2019-04-16T12:01:57.716Z,7.30
2019-04-16T12:04:55.945Z,7.53
2019-04-16T12:07:40.968Z,6.73
2019-04-16T12:10:32.707Z,7.20
2019-04-16T12:13:20.056Z,6.60
2019-04-16T12:15:58.869Z,7.80
2019-04-16T12:18:52.847Z,7.07
2019-04-16T12:21:40.126Z,6.33
2019-04-16T12:24:19.452Z,6.40
2019-04-16T12:27:10.827Z,6.70
2019-04-16T12:29:54.228Z,6.77
2019-04-16T12:32:42.532Z,7.60
2019-04-16T12:35:15.945Z,7.60
2019-04-16T12:38:03.357Z,7.33
2019-04-16T12:40:51.529Z,6.93
2019-04-16T12:43:25.065Z,7.53
2019-04-16T12:46:00.773Z,6.53
2019-04-16T12:48:48.212Z,6.50
2019-04-16T12:51:33.974Z,6.53
2019-04-16T12:54:25.563Z,7.60
2019-04-16T12:57:10.681Z,6.97
2019-04-16T12:59:54.718Z,6.60
2019-04-16T13:02:41.902Z,6.27
2019-04-16T13:05:20.887Z,6.43
2019-04-16T13:08:07.117Z,7.40
2019-04-16T13:10:46.100Z,5.93
2019-04-16T13:13:32.993Z,5.37
2019-04-16T13:16:09.705Z,6.20
2019-04-16T13:19:03.859Z,6.23
2019-04-16T13:21:36.356Z,5.83
2019-04-16T13:24:24.671Z,6.03
2019-04-16T13:27:13.659Z,7.10
2019-04-16T13:29:42.752Z,7.47
2019-04-16T13:32:11.853Z,7.03
2019-04-16T13:34:40.966Z,9.47
2019-04-16T13:37:10.069Z,6.93
2019-04-16T13:39:52.599Z,6.37
2019-04-16T13:42:21.725Z,7.30
2019-04-16T13:44:55.280Z,7.33
2019-04-16T13:47:24.457Z,6.90
2019-04-16T13:50:10.076Z,6.40
2019-04-16T13:52:39.480Z,11.23
2019-04-16T13:55:26.680Z,8.07
2019-04-16T13:58:06.417Z,7.67
2019-04-16T14:00:41.104Z,7.00
2019-04-16T14:03:13.253Z,8.00
2019-04-16T14:19:52.611Z,7.07
2019-04-16T14:22:22.500Z,6.50
2019-04-16T14:24:51.673Z,7.30
2019-04-16T14:27:20.759Z,7.20
2019-04-16T14:29:49.855Z,6.03
2019-04-16T14:32:18.938Z,5.90
2019-04-16T14:34:59.079Z,6.87
2019-04-16T14:37:28.228Z,6.60
2019-04-16T14:40:04.316Z,6.73
2019-04-16T14:42:33.542Z,6.73
2019-04-16T14:45:13.161Z,5.60
2019-04-16T14:47:42.257Z,5.63
2019-04-16T14:50:13.303Z,5.83
2019-04-16T14:52:42.262Z,6.40
2019-04-16T14:55:19.948Z,6.37
2019-04-16T14:58:07.787Z,5.90
2019-04-16T15:01:14.652Z,6.03
2019-04-16T15:04:02.938Z,5.47
2019-04-16T15:06:49.058Z,5.53
2019-04-16T15:09:30.717Z,5.97
2019-04-16T15:12:18.121Z,5.37
2019-04-16T15:14:52.560Z,6.03
2019-04-16T15:17:30.408Z,5.73
2019-04-16T15:20:12.284Z,5.10
2019-04-16T15:22:48.124Z,6.03
2019-04-16T15:25:25.288Z,4.73
2019-04-16T15:28:17.248Z,5.53
2019-04-16T15:31:01.591Z,6.00
2019-04-16T15:33:38.902Z,5.87
2019-04-16T15:36:09.825Z,5.60
2019-04-16T15:38:58.962Z,6.03
2019-04-16T15:41:47.094Z,6.93
2019-04-16T15:44:31.896Z,6.70
2019-04-16T15:47:31.792Z,7.90
2019-04-16T15:50:18.413Z,7.50
2019-04-16T15:53:22.115Z,6.97
2019-04-16T15:55:57.100Z,7.60
2019-04-16T15:58:32.369Z,7.60
2019-04-16T16:01:23.208Z,8.20
2019-04-16T16:03:55.057Z,7.73
2019-04-16T16:06:25.603Z,8.23
2019-04-16T16:09:07.926Z,7.80
2019-04-16T16:11:44.566Z,8.63
2019-04-16T16:14:14.719Z,7.70
2019-04-16T16:16:43.819Z,7.63
2019-04-16T16:19:12.903Z,8.00
2019-04-16T16:21:41.989Z,7.97
2019-04-16T16:24:11.179Z,8.37
2019-04-16T16:26:40.268Z,8.97
2019-04-16T16:29:09.368Z,8.30
2019-04-16T16:31:38.463Z,8.80
2019-04-16T16:34:09.090Z,7.97
2019-04-16T16:36:40.631Z,9.37
2019-04-16T16:39:09.176Z,10.27
2019-04-16T16:41:39.892Z,8.60
2019-04-16T16:44:09.015Z,9.57
2019-04-16T16:46:56.561Z,9.10
2019-04-16T16:49:18.316Z,8.50
2019-04-16T16:52:10.164Z,9.53
2019-04-16T16:54:39.727Z,8.80
2019-04-16T16:57:12.604Z,9.60
2019-04-16T16:59:49.961Z,9.37
2019-04-16T17:02:39.339Z,8.90
2019-04-16T17:05:13.967Z,8.77
2019-04-16T17:07:43.056Z,9.10
2019-04-16T17:10:12.292Z,10.00
2019-04-16T17:12:41.483Z,9.20
2019-04-16T17:15:10.727Z,9.30
2019-04-16T17:17:39.827Z,9.33
2019-04-16T17:20:08.992Z,8.83
2019-04-16T17:22:40.756Z,9.60
2019-04-16T17:25:11.706Z,8.93
2019-04-16T17:27:51.310Z,9.73
2019-04-16T17:30:12.241Z,8.70
2019-04-16T17:32:41.607Z,8.20
2019-04-16T17:35:14.441Z,7.90
2019-04-16T17:37:41.505Z,8.73
2019-04-16T17:40:41.948Z,9.87
2019-04-16T17:43:59.787Z,8.43
2019-04-16T17:46:26.471Z,8.67
2019-04-16T17:49:08.144Z,8.07
2019-04-16T17:52:01.430Z,10.17
2019-04-16T17:54:37.286Z,8.83
2019-04-16T17:57:17.257Z,7.83
2019-04-16T18:00:05.898Z,8.40
2019-04-16T18:02:48.886Z,7.77
2019-04-16T18:05:24.913Z,8.60
2019-04-16T18:08:07.482Z,8.33
2019-04-16T18:10:46.283Z,8.33
2019-04-16T18:13:22.685Z,8.37
2019-04-16T18:16:29.381Z,8.60
2019-04-16T18:19:17.786Z,7.90
2019-04-16T18:22:05.457Z,8.40
2019-04-16T18:24:54.169Z,8.17
2019-04-16T18:27:37.693Z,8.40
2019-04-16T18:30:38.140Z,7.90
2019-04-16T18:33:23.394Z,7.87
2019-04-16T18:36:14.170Z,8.00
2019-04-16T18:39:07.613Z,8.90
2019-04-16T18:41:46.079Z,8.07
2019-04-16T18:44:51.282Z,8.93
2019-04-16T18:47:36.188Z,8.03
2019-04-16T18:50:08.263Z,8.17
2019-04-16T18:52:38.527Z,8.20
2019-04-16T18:55:08.671Z,8.20
2019-04-16T18:57:38.439Z,9.50
2019-04-16T19:00:28.669Z,8.53
2019-04-16T19:02:58.391Z,8.90
2019-04-16T19:05:27.587Z,8.07
2019-04-16T19:07:59.898Z,7.80
2019-04-16T19:10:28.459Z,8.03
2019-04-16T19:12:57.589Z,7.90
2019-04-16T19:15:27.814Z,9.37
2019-04-16T19:17:56.931Z,8.60
2019-04-16T19:20:26.017Z,8.30
2019-04-16T19:22:55.196Z,9.60
2019-04-16T19:25:24.272Z,8.40
2019-04-16T19:27:53.372Z,8.60
2019-04-16T19:30:22.929Z,8.60
2019-04-16T19:32:52.576Z,8.50
2019-04-16T19:35:22.678Z,9.03
2019-04-16T19:37:52.897Z,8.80
2019-04-16T19:40:22.088Z,8.37
2019-04-16T19:42:51.456Z,8.90
2019-04-16T19:45:20.535Z,7.40
2019-04-16T19:47:49.724Z,8.50
2019-04-16T19:50:18.820Z,8.50
2019-04-16T19:52:47.948Z,7.93
2019-04-16T19:55:17.131Z,7.80
2019-04-16T19:57:46.232Z,8.87
2019-04-16T20:00:22.067Z,7.83
2019-04-16T20:02:46.744Z,8.50
2019-04-16T20:05:18.436Z,8.20
2019-04-16T20:07:46.984Z,8.03
2019-04-16T20:10:16.088Z,7.57
2019-04-16T20:12:45.456Z,8.17
2019-04-16T20:15:14.730Z,8.83
2019-04-16T20:17:43.855Z,8.17
2019-04-16T20:20:13.230Z,8.80
2019-04-16T20:22:42.315Z,8.00
2019-04-16T20:25:11.616Z,8.60
2019-04-16T20:27:41.004Z,8.90
2019-04-16T20:30:12.271Z,8.00
2019-04-16T20:32:42.493Z,7.37
2019-04-16T20:35:15.089Z,19.90
2019-04-16T20:37:42.874Z,7.80
2019-04-16T20:40:14.649Z,8.30
2019-04-16T20:42:43.028Z,8.77
2019-04-16T20:45:12.684Z,9.03
2019-04-16T20:47:41.984Z,7.30
2019-04-16T20:50:11.336Z,6.77
2019-04-16T20:52:40.676Z,7.40
2019-04-16T20:55:15.784Z,6.40
2019-04-16T20:57:41.740Z,5.90
2019-04-16T21:00:12.947Z,6.97
2019-04-16T21:02:43.206Z,6.77
2019-04-16T21:05:21.840Z,6.27
2019-04-16T21:07:43.913Z,6.87
2019-04-16T21:10:14.115Z,6.40
2019-04-16T21:12:45.456Z,6.03
2019-04-16T21:15:15.279Z,6.17
2019-04-16T21:17:44.579Z,6.10
2019-04-16T21:20:16.673Z,6.33
2019-04-16T21:22:44.823Z,6.30
2019-04-16T21:25:14.028Z,6.40
2019-04-16T21:27:56.688Z,6.50
2019-04-16T21:30:25.980Z,6.40
2019-04-16T21:33:17.704Z,6.40
2019-04-16T21:35:49.305Z,7.00
2019-04-16T21:38:46.900Z,6.40
2019-04-16T21:41:16.007Z,6.17
2019-04-16T21:43:45.099Z,6.90
2019-04-16T21:46:14.449Z,5.67
2019-04-16T21:48:43.823Z,6.80
2019-04-16T21:51:19.022Z,6.50
2019-04-16T21:53:45.041Z,7.20
2019-04-16T21:56:14.387Z,6.77
2019-04-16T21:58:43.477Z,7.00
2019-04-16T22:01:28.879Z,6.30
2019-04-16T22:04:02.580Z,6.50
2019-04-16T22:06:31.857Z,6.70
2019-04-16T22:09:03.568Z,6.70
2019-04-16T22:11:33.631Z,6.40
2019-04-16T22:14:02.870Z,6.77
2019-04-16T22:16:31.964Z,6.57
2019-04-16T22:19:01.224Z,6.43
2019-04-16T22:21:30.315Z,6.23
2019-04-16T22:23:59.398Z,7.10
2019-04-16T22:26:34.236Z,7.57
2019-04-16T22:28:59.627Z,6.90
2019-04-16T22:31:29.266Z,4.93
2019-04-16T22:33:58.352Z,6.40
2019-04-16T22:36:27.657Z,6.50
2019-04-16T22:39:03.496Z,6.00
2019-04-16T22:41:42.534Z,6.77
2019-04-16T22:44:23.784Z,6.97
2019-04-16T22:47:00.316Z,6.70
2019-04-16T22:49:29.598Z,6.90
2019-04-16T22:52:00.039Z,7.10
2019-04-16T22:54:29.127Z,6.53
2019-04-16T22:57:06.703Z,6.27
2019-04-16T22:59:39.016Z,6.90
2019-04-16T23:02:16.759Z,6.57
2019-04-16T23:04:47.034Z,7.63
2019-04-16T23:07:16.402Z,6.53
2019-04-16T23:09:48.133Z,6.80
2019-04-16T23:12:16.548Z,7.30
2019-04-16T23:14:45.644Z,6.67
2019-04-16T23:17:16.467Z,6.67
2019-04-16T23:19:45.574Z,6.93
2019-04-16T23:22:15.435Z,7.30
2019-04-16T23:24:44.987Z,6.97
2019-04-16T23:27:14.072Z,8.37
2019-04-16T23:29:47.283Z,7.47
2019-04-16T23:32:14.328Z,7.87
2019-04-16T23:34:43.743Z,7.50
2019-04-16T23:37:12.848Z,6.40
2019-04-16T23:39:41.943Z,7.20
2019-04-16T23:42:11.315Z,7.83
2019-04-16T23:45:05.736Z,6.27
2019-04-16T23:48:15.532Z,8.70
2019-04-16T23:51:02.823Z,7.13
2019-04-16T23:53:43.743Z,7.40
2019-04-16T23:56:32.136Z,7.00
2019-04-16T23:59:05.062Z,7.70
